Terminal Aerodrome Forecast
Issued by NWS Grand Forks, ND

Home | Current Version | Previous Version | Text Only | Print | Product List | Glossary Off
Versions: 1 2 3 4 5 6 7 8 9 10 11 12 13 14 15 16 17 18 19 20 21 22 23 24 25 26 27

696
FTUS43 KFGF 261120
TAFGFK
TAF
KGFK 261120Z 2612/2712 VRB05KT P6SM OVC007
      TEMPO 2612/2614 5SM BR SCT007
     FM261900 VRB04KT P6SM BKN020
     FM262300 VRB04KT P6SM BKN035=

USA.gov is the U.S. government's official web portal to all federal, state and local government web resources and services.